sensor_id;sensor_type;location;lat;lon;timestamp;P1;durP1;ratioP1;P2;durP2;ratioP2
76204;SDS011;64986;55.672;37.628;2023-07-30T00:01:19;8.02;;;4.30;;
76204;SDS011;64986;55.672;37.628;2023-07-30T00:03:44;5.85;;;4.40;;
76204;SDS011;64986;55.672;37.628;2023-07-30T00:06:10;5.32;;;4.05;;
76204;SDS011;64986;55.672;37.628;2023-07-30T00:08:35;8.25;;;3.92;;
76204;SDS011;64986;55.672;37.628;2023-07-30T00:11:01;8.70;;;4.78;;
76204;SDS011;64986;55.672;37.628;2023-07-30T00:13:26;7.78;;;4.97;;
76204;SDS011;64986;55.672;37.628;2023-07-30T00:15:52;8.95;;;4.10;;
76204;SDS011;64986;55.672;37.628;2023-07-30T00:18:17;7.80;;;4.28;;
76204;SDS011;64986;55.672;37.628;2023-07-30T00:20:43;6.22;;;4.70;;
76204;SDS011;64986;55.672;37.628;2023-07-30T00:23:09;7.18;;;4.60;;
76204;SDS011;64986;55.672;37.628;2023-07-30T00:25:34;5.55;;;4.35;;
76204;SDS011;64986;55.672;37.628;2023-07-30T00:28:00;7.57;;;4.47;;
76204;SDS011;64986;55.672;37.628;2023-07-30T00:30:25;5.03;;;4.03;;
76204;SDS011;64986;55.672;37.628;2023-07-30T00:32:51;6.65;;;4.43;;
76204;SDS011;64986;55.672;37.628;2023-07-30T00:35:16;9.25;;;4.82;;
76204;SDS011;64986;55.672;37.628;2023-07-30T00:37:42;7.10;;;4.95;;
76204;SDS011;64986;55.672;37.628;2023-07-30T00:40:08;5.55;;;3.90;;
76204;SDS011;64986;55.672;37.628;2023-07-30T00:42:33;7.75;;;4.75;;
76204;SDS011;64986;55.672;37.628;2023-07-30T00:44:59;5.72;;;4.75;;
76204;SDS011;64986;55.672;37.628;2023-07-30T00:47:24;9.48;;;5.13;;
76204;SDS011;64986;55.672;37.628;2023-07-30T00:49:51;6.60;;;5.15;;
76204;SDS011;64986;55.672;37.628;2023-07-30T00:52:18;11.52;;;5.03;;
76204;SDS011;64986;55.672;37.628;2023-07-30T00:54:46;8.45;;;4.13;;
76204;SDS011;64986;55.672;37.628;2023-07-30T00:57:14;6.53;;;4.38;;
76204;SDS011;64986;55.672;37.628;2023-07-30T00:59:41;6.20;;;4.13;;
76204;SDS011;64986;55.672;37.628;2023-07-30T01:02:08;7.43;;;3.63;;
76204;SDS011;64986;55.672;37.628;2023-07-30T01:04:34;6.68;;;4.03;;
76204;SDS011;64986;55.672;37.628;2023-07-30T01:07:02;9.57;;;4.47;;
76204;SDS011;64986;55.672;37.628;2023-07-30T01:09:28;9.30;;;4.10;;
76204;SDS011;64986;55.672;37.628;2023-07-30T01:11:54;8.98;;;4.38;;
76204;SDS011;64986;55.672;37.628;2023-07-30T01:14:20;6.60;;;3.63;;
76204;SDS011;64986;55.672;37.628;2023-07-30T01:16:48;8.07;;;4.57;;
76204;SDS011;64986;55.672;37.628;2023-07-30T01:19:14;7.82;;;4.40;;
76204;SDS011;64986;55.672;37.628;2023-07-30T01:21:39;6.47;;;4.40;;
76204;SDS011;64986;55.672;37.628;2023-07-30T01:24:05;6.57;;;4.20;;
76204;SDS011;64986;55.672;37.628;2023-07-30T01:26:32;4.57;;;3.80;;
76204;SDS011;64986;55.672;37.628;2023-07-30T01:29:09;6.05;;;4.20;;
76204;SDS011;64986;55.672;37.628;2023-07-30T01:31:41;6.05;;;3.83;;
76204;SDS011;64986;55.672;37.628;2023-07-30T01:34:09;6.55;;;4.18;;
76204;SDS011;64986;55.672;37.628;2023-07-30T01:36:37;6.80;;;4.28;;
76204;SDS011;64986;55.672;37.628;2023-07-30T01:39:04;5.00;;;3.47;;
76204;SDS011;64986;55.672;37.628;2023-07-30T01:41:30;5.70;;;4.03;;
76204;SDS011;64986;55.672;37.628;2023-07-30T01:43:57;5.68;;;4.03;;
76204;SDS011;64986;55.672;37.628;2023-07-30T01:46:23;6.13;;;3.83;;
76204;SDS011;64986;55.672;37.628;2023-07-30T01:48:48;11.20;;;4.43;;
76204;SDS011;64986;55.672;37.628;2023-07-30T01:51:14;8.00;;;4.35;;
76204;SDS011;64986;55.672;37.628;2023-07-30T01:53:39;8.05;;;4.60;;
76204;SDS011;64986;55.672;37.628;2023-07-30T01:56:04;5.80;;;4.20;;
76204;SDS011;64986;55.672;37.628;2023-07-30T01:58:30;6.28;;;4.47;;
76204;SDS011;64986;55.672;37.628;2023-07-30T02:00:55;5.88;;;4.40;;
76204;SDS011;64986;55.672;37.628;2023-07-30T02:03:21;6.15;;;4.22;;
76204;SDS011;64986;55.672;37.628;2023-07-30T02:05:46;6.13;;;3.70;;
76204;SDS011;64986;55.672;37.628;2023-07-30T02:08:12;7.63;;;5.22;;
76204;SDS011;64986;55.672;37.628;2023-07-30T02:10:40;12.65;;;6.22;;
76204;SDS011;64986;55.672;37.628;2023-07-30T02:13:06;7.03;;;5.47;;
76204;SDS011;64986;55.672;37.628;2023-07-30T02:15:32;8.40;;;5.63;;
76204;SDS011;64986;55.672;37.628;2023-07-30T02:17:57;8.77;;;6.13;;
76204;SDS011;64986;55.672;37.628;2023-07-30T02:20:23;6.47;;;5.20;;
76204;SDS011;64986;55.672;37.628;2023-07-30T02:22:48;7.03;;;5.03;;
76204;SDS011;64986;55.672;37.628;2023-07-30T02:25:14;8.45;;;5.80;;
76204;SDS011;64986;55.672;37.628;2023-07-30T02:27:39;8.10;;;5.32;;
76204;SDS011;64986;55.672;37.628;2023-07-30T02:30:05;6.80;;;4.88;;
76204;SDS011;64986;55.672;37.628;2023-07-30T02:32:31;7.97;;;5.90;;
76204;SDS011;64986;55.672;37.628;2023-07-30T02:34:56;10.27;;;5.80;;
76204;SDS011;64986;55.672;37.628;2023-07-30T02:37:22;9.25;;;5.22;;
76204;SDS011;64986;55.672;37.628;2023-07-30T02:39:47;6.80;;;5.25;;
76204;SDS011;64986;55.672;37.628;2023-07-30T02:42:13;6.53;;;4.30;;
76204;SDS011;64986;55.672;37.628;2023-07-30T02:44:38;8.02;;;5.95;;
76204;SDS011;64986;55.672;37.628;2023-07-30T02:47:04;6.68;;;5.25;;
76204;SDS011;64986;55.672;37.628;2023-07-30T02:49:30;8.88;;;5.50;;
76204;SDS011;64986;55.672;37.628;2023-07-30T02:51:55;5.45;;;4.47;;
76204;SDS011;64986;55.672;37.628;2023-07-30T02:54:21;7.40;;;5.10;;
76204;SDS011;64986;55.672;37.628;2023-07-30T02:56:47;7.65;;;4.72;;
76204;SDS011;64986;55.672;37.628;2023-07-30T02:59:12;6.53;;;4.65;;
76204;SDS011;64986;55.672;37.628;2023-07-30T03:01:38;6.38;;;5.25;;
76204;SDS011;64986;55.672;37.628;2023-07-30T03:04:04;6.72;;;4.72;;
76204;SDS011;64986;55.672;37.628;2023-07-30T03:06:29;8.40;;;5.28;;
76204;SDS011;64986;55.672;37.628;2023-07-30T03:08:55;8.30;;;5.90;;
76204;SDS011;64986;55.672;37.628;2023-07-30T03:11:21;5.72;;;4.65;;
76204;SDS011;64986;55.672;37.628;2023-07-30T03:13:47;8.52;;;5.18;;
76204;SDS011;64986;55.672;37.628;2023-07-30T03:16:13;5.78;;;4.22;;
76204;SDS011;64986;55.672;37.628;2023-07-30T03:18:38;7.15;;;4.90;;
76204;SDS011;64986;55.672;37.628;2023-07-30T03:21:04;6.63;;;4.93;;
76204;SDS011;64986;55.672;37.628;2023-07-30T03:23:29;6.35;;;4.85;;
76204;SDS011;64986;55.672;37.628;2023-07-30T03:25:55;6.00;;;4.60;;
76204;SDS011;64986;55.672;37.628;2023-07-30T03:28:20;8.98;;;4.88;;
76204;SDS011;64986;55.672;37.628;2023-07-30T03:30:46;6.13;;;4.63;;
76204;SDS011;64986;55.672;37.628;2023-07-30T03:33:11;4.20;;;3.58;;
76204;SDS011;64986;55.672;37.628;2023-07-30T03:35:37;5.72;;;3.90;;
76204;SDS011;64986;55.672;37.628;2023-07-30T03:38:02;8.10;;;4.32;;
76204;SDS011;64986;55.672;37.628;2023-07-30T03:40:28;6.80;;;4.63;;
76204;SDS011;64986;55.672;37.628;2023-07-30T03:42:54;4.30;;;3.45;;
76204;SDS011;64986;55.672;37.628;2023-07-30T03:45:20;5.82;;;3.58;;
76204;SDS011;64986;55.672;37.628;2023-07-30T03:47:46;7.05;;;4.10;;
76204;SDS011;64986;55.672;37.628;2023-07-30T03:50:11;6.22;;;4.38;;
76204;SDS011;64986;55.672;37.628;2023-07-30T03:52:37;6.22;;;3.63;;
76204;SDS011;64986;55.672;37.628;2023-07-30T03:55:02;5.13;;;3.92;;
76204;SDS011;64986;55.672;37.628;2023-07-30T03:57:28;5.10;;;4.00;;
76204;SDS011;64986;55.672;37.628;2023-07-30T03:59:54;4.38;;;3.42;;
76204;SDS011;64986;55.672;37.628;2023-07-30T04:02:19;6.78;;;3.20;;
76204;SDS011;64986;55.672;37.628;2023-07-30T04:04:45;6.25;;;3.55;;
76204;SDS011;64986;55.672;37.628;2023-07-30T04:07:13;5.60;;;3.35;;
76204;SDS011;64986;55.672;37.628;2023-07-30T04:09:38;5.53;;;3.28;;
76204;SDS011;64986;55.672;37.628;2023-07-30T04:12:04;4.40;;;2.90;;
76204;SDS011;64986;55.672;37.628;2023-07-30T04:14:30;4.22;;;2.95;;
76204;SDS011;64986;55.672;37.628;2023-07-30T04:16:55;6.78;;;3.55;;
76204;SDS011;64986;55.672;37.628;2023-07-30T04:19:21;3.55;;;2.90;;
76204;SDS011;64986;55.672;37.628;2023-07-30T04:21:47;3.35;;;2.95;;
76204;SDS011;64986;55.672;37.628;2023-07-30T04:24:12;3.50;;;2.72;;
76204;SDS011;64986;55.672;37.628;2023-07-30T04:26:37;6.35;;;3.63;;
76204;SDS011;64986;55.672;37.628;2023-07-30T04:29:03;4.35;;;3.10;;
76204;SDS011;64986;55.672;37.628;2023-07-30T04:31:28;6.57;;;3.58;;
76204;SDS011;64986;55.672;37.628;2023-07-30T04:33:54;4.53;;;3.33;;
76204;SDS011;64986;55.672;37.628;2023-07-30T04:36:19;5.07;;;3.05;;
76204;SDS011;64986;55.672;37.628;2023-07-30T04:38:45;4.97;;;2.05;;
76204;SDS011;64986;55.672;37.628;2023-07-30T04:41:10;6.05;;;2.78;;
76204;SDS011;64986;55.672;37.628;2023-07-30T04:43:36;4.90;;;3.10;;
76204;SDS011;64986;55.672;37.628;2023-07-30T04:46:01;7.25;;;3.40;;
76204;SDS011;64986;55.672;37.628;2023-07-30T04:48:27;4.03;;;2.88;;
76204;SDS011;64986;55.672;37.628;2023-07-30T04:50:52;4.20;;;2.60;;
76204;SDS011;64986;55.672;37.628;2023-07-30T04:53:18;5.32;;;3.05;;
76204;SDS011;64986;55.672;37.628;2023-07-30T04:55:45;6.10;;;2.90;;
76204;SDS011;64986;55.672;37.628;2023-07-30T04:58:11;6.65;;;3.30;;
76204;SDS011;64986;55.672;37.628;2023-07-30T05:00:36;5.85;;;3.33;;
76204;SDS011;64986;55.672;37.628;2023-07-30T05:03:02;5.95;;;2.97;;
76204;SDS011;64986;55.672;37.628;2023-07-30T05:05:28;5.70;;;3.05;;
76204;SDS011;64986;55.672;37.628;2023-07-30T05:07:53;3.60;;;2.83;;
76204;SDS011;64986;55.672;37.628;2023-07-30T05:10:19;5.05;;;2.83;;
76204;SDS011;64986;55.672;37.628;2023-07-30T05:12:45;4.05;;;2.40;;
76204;SDS011;64986;55.672;37.628;2023-07-30T05:15:10;4.75;;;2.90;;
76204;SDS011;64986;55.672;37.628;2023-07-30T05:17:36;6.50;;;3.35;;
76204;SDS011;64986;55.672;37.628;2023-07-30T05:20:01;3.72;;;2.40;;
76204;SDS011;64986;55.672;37.628;2023-07-30T05:22:27;4.00;;;2.58;;
76204;SDS011;64986;55.672;37.628;2023-07-30T05:24:52;3.88;;;2.35;;
76204;SDS011;64986;55.672;37.628;2023-07-30T05:27:18;3.67;;;2.63;;
76204;SDS011;64986;55.672;37.628;2023-07-30T05:29:43;3.67;;;2.42;;
76204;SDS011;64986;55.672;37.628;2023-07-30T05:32:09;6.32;;;2.75;;
76204;SDS011;64986;55.672;37.628;2023-07-30T05:34:34;4.70;;;2.53;;
76204;SDS011;64986;55.672;37.628;2023-07-30T05:37:00;3.97;;;3.00;;
76204;SDS011;64986;55.672;37.628;2023-07-30T05:39:26;5.82;;;2.58;;
76204;SDS011;64986;55.672;37.628;2023-07-30T05:41:52;3.97;;;2.65;;
76204;SDS011;64986;55.672;37.628;2023-07-30T05:44:17;6.28;;;3.22;;
76204;SDS011;64986;55.672;37.628;2023-07-30T05:46:43;6.93;;;2.90;;
76204;SDS011;64986;55.672;37.628;2023-07-30T05:49:08;5.00;;;2.60;;
76204;SDS011;64986;55.672;37.628;2023-07-30T05:51:34;7.45;;;2.92;;
76204;SDS011;64986;55.672;37.628;2023-07-30T05:53:59;4.18;;;2.20;;
76204;SDS011;64986;55.672;37.628;2023-07-30T05:56:25;3.33;;;2.80;;
76204;SDS011;64986;55.672;37.628;2023-07-30T05:58:50;4.22;;;2.90;;
76204;SDS011;64986;55.672;37.628;2023-07-30T06:01:16;3.28;;;2.15;;
76204;SDS011;64986;55.672;37.628;2023-07-30T06:03:42;3.35;;;2.63;;
76204;SDS011;64986;55.672;37.628;2023-07-30T06:06:07;4.78;;;2.97;;
76204;SDS011;64986;55.672;37.628;2023-07-30T06:08:33;6.20;;;2.55;;
76204;SDS011;64986;55.672;37.628;2023-07-30T06:11:02;4.90;;;2.45;;
76204;SDS011;64986;55.672;37.628;2023-07-30T06:13:31;3.63;;;2.35;;
76204;SDS011;64986;55.672;37.628;2023-07-30T06:15:56;4.97;;;2.08;;
76204;SDS011;64986;55.672;37.628;2023-07-30T06:18:22;5.88;;;2.40;;
76204;SDS011;64986;55.672;37.628;2023-07-30T06:20:47;4.18;;;2.58;;
76204;SDS011;64986;55.672;37.628;2023-07-30T06:23:13;5.40;;;2.42;;
76204;SDS011;64986;55.672;37.628;2023-07-30T06:25:38;3.45;;;2.15;;
76204;SDS011;64986;55.672;37.628;2023-07-30T06:28:04;4.00;;;2.00;;
76204;SDS011;64986;55.672;37.628;2023-07-30T06:30:31;4.75;;;2.13;;
76204;SDS011;64986;55.672;37.628;2023-07-30T06:32:57;7.28;;;2.85;;
76204;SDS011;64986;55.672;37.628;2023-07-30T06:35:23;7.50;;;3.10;;
76204;SDS011;64986;55.672;37.628;2023-07-30T06:37:50;2.85;;;1.90;;
76204;SDS011;64986;55.672;37.628;2023-07-30T06:40:17;3.28;;;2.30;;
76204;SDS011;64986;55.672;37.628;2023-07-30T06:42:42;4.55;;;2.05;;
76204;SDS011;64986;55.672;37.628;2023-07-30T06:45:08;7.28;;;2.00;;
76204;SDS011;64986;55.672;37.628;2023-07-30T06:47:33;3.65;;;2.28;;
76204;SDS011;64986;55.672;37.628;2023-07-30T06:49:59;3.78;;;1.80;;
76204;SDS011;64986;55.672;37.628;2023-07-30T06:52:24;2.85;;;1.90;;
76204;SDS011;64986;55.672;37.628;2023-07-30T06:54:50;4.50;;;2.40;;
76204;SDS011;64986;55.672;37.628;2023-07-30T06:57:16;2.45;;;2.22;;
76204;SDS011;64986;55.672;37.628;2023-07-30T06:59:41;4.05;;;2.08;;
76204;SDS011;64986;55.672;37.628;2023-07-30T07:02:09;4.15;;;2.35;;
76204;SDS011;64986;55.672;37.628;2023-07-30T07:04:34;4.82;;;2.22;;
76204;SDS011;64986;55.672;37.628;2023-07-30T07:07:00;2.95;;;2.00;;
76204;SDS011;64986;55.672;37.628;2023-07-30T07:09:28;7.57;;;2.42;;
76204;SDS011;64986;55.672;37.628;2023-07-30T07:11:53;3.25;;;1.85;;
76204;SDS011;64986;55.672;37.628;2023-07-30T07:14:19;3.65;;;2.03;;
76204;SDS011;64986;55.672;37.628;2023-07-30T07:16:44;2.97;;;2.00;;
76204;SDS011;64986;55.672;37.628;2023-07-30T07:19:10;2.58;;;2.05;;
76204;SDS011;64986;55.672;37.628;2023-07-30T07:21:36;2.75;;;2.17;;
76204;SDS011;64986;55.672;37.628;2023-07-30T07:24:01;5.93;;;1.85;;
76204;SDS011;64986;55.672;37.628;2023-07-30T07:26:27;3.70;;;2.30;;
76204;SDS011;64986;55.672;37.628;2023-07-30T07:28:52;5.40;;;2.10;;
76204;SDS011;64986;55.672;37.628;2023-07-30T07:31:20;3.22;;;2.22;;
76204;SDS011;64986;55.672;37.628;2023-07-30T07:33:46;3.65;;;2.00;;
76204;SDS011;64986;55.672;37.628;2023-07-30T07:36:12;3.38;;;2.22;;
76204;SDS011;64986;55.672;37.628;2023-07-30T07:38:39;4.25;;;2.15;;
76204;SDS011;64986;55.672;37.628;2023-07-30T07:41:05;5.43;;;2.22;;
76204;SDS011;64986;55.672;37.628;2023-07-30T07:43:30;3.13;;;1.67;;
76204;SDS011;64986;55.672;37.628;2023-07-30T07:45:56;6.28;;;2.60;;
76204;SDS011;64986;55.672;37.628;2023-07-30T07:48:21;6.82;;;2.20;;
76204;SDS011;64986;55.672;37.628;2023-07-30T07:50:47;4.28;;;2.00;;
76204;SDS011;64986;55.672;37.628;2023-07-30T07:53:12;5.53;;;2.40;;
76204;SDS011;64986;55.672;37.628;2023-07-30T07:55:38;4.07;;;2.20;;
76204;SDS011;64986;55.672;37.628;2023-07-30T07:58:03;1.88;;;1.52;;
76204;SDS011;64986;55.672;37.628;2023-07-30T08:00:29;3.53;;;2.28;;
76204;SDS011;64986;55.672;37.628;2023-07-30T08:02:54;4.50;;;2.15;;
76204;SDS011;64986;55.672;37.628;2023-07-30T08:05:20;3.15;;;1.73;;
76204;SDS011;64986;55.672;37.628;2023-07-30T08:07:46;2.83;;;1.83;;
76204;SDS011;64986;55.672;37.628;2023-07-30T08:10:12;3.67;;;1.55;;
76204;SDS011;64986;55.672;37.628;2023-07-30T08:12:37;2.20;;;1.90;;
76204;SDS011;64986;55.672;37.628;2023-07-30T08:15:03;3.67;;;1.63;;
76204;SDS011;64986;55.672;37.628;2023-07-30T08:17:29;1.75;;;1.60;;
76204;SDS011;64986;55.672;37.628;2023-07-30T08:19:54;2.90;;;1.83;;
76204;SDS011;64986;55.672;37.628;2023-07-30T08:22:20;2.75;;;1.60;;
76204;SDS011;64986;55.672;37.628;2023-07-30T08:24:45;4.53;;;2.13;;
76204;SDS011;64986;55.672;37.628;2023-07-30T08:27:11;4.15;;;1.70;;
76204;SDS011;64986;55.672;37.628;2023-07-30T08:29:36;6.70;;;1.90;;
76204;SDS011;64986;55.672;37.628;2023-07-30T08:32:02;3.30;;;2.05;;
76204;SDS011;64986;55.672;37.628;2023-07-30T08:34:28;1.88;;;1.55;;
76204;SDS011;64986;55.672;37.628;2023-07-30T08:36:53;2.47;;;1.52;;
76204;SDS011;64986;55.672;37.628;2023-07-30T08:39:19;3.50;;;2.00;;
76204;SDS011;64986;55.672;37.628;2023-07-30T08:41:45;2.80;;;1.83;;
76204;SDS011;64986;55.672;37.628;2023-07-30T08:44:10;2.95;;;1.70;;
76204;SDS011;64986;55.672;37.628;2023-07-30T08:46:38;1.10;;;1.00;;
76204;SDS011;64986;55.672;37.628;2023-07-30T08:49:04;2.00;;;1.67;;
76204;SDS011;64986;55.672;37.628;2023-07-30T08:51:29;2.10;;;1.80;;
76204;SDS011;64986;55.672;37.628;2023-07-30T08:53:56;3.38;;;1.80;;
76204;SDS011;64986;55.672;37.628;2023-07-30T08:56:22;2.15;;;1.60;;
76204;SDS011;64986;55.672;37.628;2023-07-30T08:58:48;3.78;;;1.63;;
76204;SDS011;64986;55.672;37.628;2023-07-30T09:01:18;3.15;;;1.63;;
76204;SDS011;64986;55.672;37.628;2023-07-30T09:03:45;3.35;;;2.00;;
76204;SDS011;64986;55.672;37.628;2023-07-30T09:06:13;4.43;;;1.80;;
76204;SDS011;64986;55.672;37.628;2023-07-30T09:08:39;2.08;;;1.70;;
76204;SDS011;64986;55.672;37.628;2023-07-30T09:11:11;1.70;;;1.30;;
76204;SDS011;64986;55.672;37.628;2023-07-30T09:13:37;2.42;;;1.45;;
76204;SDS011;64986;55.672;37.628;2023-07-30T09:16:10;2.78;;;1.80;;
76204;SDS011;64986;55.672;37.628;2023-07-30T09:18:41;2.90;;;1.65;;
76204;SDS011;64986;55.672;37.628;2023-07-30T09:21:12;4.93;;;1.90;;
76204;SDS011;64986;55.672;37.628;2023-07-30T09:23:45;3.63;;;1.60;;
76204;SDS011;64986;55.672;37.628;2023-07-30T09:26:11;3.05;;;1.98;;
76204;SDS011;64986;55.672;37.628;2023-07-30T09:28:39;2.00;;;1.70;;
76204;SDS011;64986;55.672;37.628;2023-07-30T09:31:06;3.95;;;1.55;;
76204;SDS011;64986;55.672;37.628;2023-07-30T09:33:40;3.45;;;1.90;;
76204;SDS011;64986;55.672;37.628;2023-07-30T09:36:09;3.80;;;1.98;;
76204;SDS011;64986;55.672;37.628;2023-07-30T09:38:44;2.53;;;1.92;;
76204;SDS011;64986;55.672;37.628;2023-07-30T09:41:12;3.20;;;1.83;;
76204;SDS011;64986;55.672;37.628;2023-07-30T09:43:39;3.72;;;1.70;;
76204;SDS011;64986;55.672;37.628;2023-07-30T09:46:05;2.60;;;2.05;;
76204;SDS011;64986;55.672;37.628;2023-07-30T09:48:32;2.55;;;1.48;;
76204;SDS011;64986;55.672;37.628;2023-07-30T09:51:04;3.88;;;1.50;;
76204;SDS011;64986;55.672;37.628;2023-07-30T09:53:31;3.70;;;1.35;;
76204;SDS011;64986;55.672;37.628;2023-07-30T09:56:00;3.38;;;1.60;;
76204;SDS011;64986;55.672;37.628;2023-07-30T09:58:29;5.82;;;2.00;;
76204;SDS011;64986;55.672;37.628;2023-07-30T10:00:57;5.65;;;2.10;;
76204;SDS011;64986;55.672;37.628;2023-07-30T10:03:27;4.35;;;2.35;;
76204;SDS011;64986;55.672;37.628;2023-07-30T10:05:54;2.95;;;1.70;;
76204;SDS011;64986;55.672;37.628;2023-07-30T10:08:29;2.38;;;1.38;;
76204;SDS011;64986;55.672;37.628;2023-07-30T10:10:59;2.65;;;2.00;;
76204;SDS011;64986;55.672;37.628;2023-07-30T10:13:27;2.42;;;1.63;;
76204;SDS011;64986;55.672;37.628;2023-07-30T10:15:53;2.40;;;1.52;;
76204;SDS011;64986;55.672;37.628;2023-07-30T10:18:20;3.53;;;1.65;;
76204;SDS011;64986;55.672;37.628;2023-07-30T10:20:53;1.60;;;1.25;;
76204;SDS011;64986;55.672;37.628;2023-07-30T10:23:20;5.28;;;1.58;;
76204;SDS011;64986;55.672;37.628;2023-07-30T10:25:46;3.35;;;1.58;;
76204;SDS011;64986;55.672;37.628;2023-07-30T10:28:26;3.42;;;1.63;;
76204;SDS011;64986;55.672;37.628;2023-07-30T10:30:56;2.85;;;1.40;;
76204;SDS011;64986;55.672;37.628;2023-07-30T10:36:11;3.33;;;1.45;;
76204;SDS011;64986;55.672;37.628;2023-07-30T10:38:37;1.85;;;1.60;;
76204;SDS011;64986;55.672;37.628;2023-07-30T10:41:05;1.75;;;1.50;;
76204;SDS011;64986;55.672;37.628;2023-07-30T10:43:34;3.53;;;1.40;;
76204;SDS011;64986;55.672;37.628;2023-07-30T10:46:01;1.80;;;1.50;;
76204;SDS011;64986;55.672;37.628;2023-07-30T10:48:30;3.60;;;1.70;;
76204;SDS011;64986;55.672;37.628;2023-07-30T10:51:04;3.22;;;1.60;;
76204;SDS011;64986;55.672;37.628;2023-07-30T10:53:31;4.70;;;1.77;;
76204;SDS011;64986;55.672;37.628;2023-07-30T10:55:57;6.20;;;1.52;;
76204;SDS011;64986;55.672;37.628;2023-07-30T10:58:26;2.97;;;1.85;;
76204;SDS011;64986;55.672;37.628;2023-07-30T11:00:53;2.67;;;1.40;;
76204;SDS011;64986;55.672;37.628;2023-07-30T11:03:19;2.22;;;1.70;;
76204;SDS011;64986;55.672;37.628;2023-07-30T11:05:48;2.80;;;1.55;;
76204;SDS011;64986;55.672;37.628;2023-07-30T11:08:14;2.28;;;1.52;;
76204;SDS011;64986;55.672;37.628;2023-07-30T11:10:43;8.25;;;1.60;;
76204;SDS011;64986;55.672;37.628;2023-07-30T11:13:12;2.30;;;1.75;;
76204;SDS011;64986;55.672;37.628;2023-07-30T11:15:42;6.38;;;1.80;;
76204;SDS011;64986;55.672;37.628;2023-07-30T11:18:08;2.10;;;1.55;;
76204;SDS011;64986;55.672;37.628;2023-07-30T11:20:35;3.53;;;1.67;;
76204;SDS011;64986;55.672;37.628;2023-07-30T11:23:01;3.13;;;1.88;;
76204;SDS011;64986;55.672;37.628;2023-07-30T11:25:27;3.20;;;1.80;;
76204;SDS011;64986;55.672;37.628;2023-07-30T11:27:52;3.15;;;2.00;;
76204;SDS011;64986;55.672;37.628;2023-07-30T11:30:18;2.15;;;1.63;;
76204;SDS011;64986;55.672;37.628;2023-07-30T11:32:44;2.38;;;1.60;;
76204;SDS011;64986;55.672;37.628;2023-07-30T11:35:13;3.03;;;1.60;;
76204;SDS011;64986;55.672;37.628;2023-07-30T11:37:41;5.38;;;1.67;;
76204;SDS011;64986;55.672;37.628;2023-07-30T11:40:08;2.22;;;1.45;;
76204;SDS011;64986;55.672;37.628;2023-07-30T11:42:36;5.47;;;2.35;;
76204;SDS011;64986;55.672;37.628;2023-07-30T11:47:49;6.75;;;3.53;;
76204;SDS011;64986;55.672;37.628;2023-07-30T11:50:15;1.73;;;1.48;;
76204;SDS011;64986;55.672;37.628;2023-07-30T11:52:54;2.95;;;1.52;;
76204;SDS011;64986;55.672;37.628;2023-07-30T11:55:20;2.55;;;1.60;;
76204;SDS011;64986;55.672;37.628;2023-07-30T11:57:47;5.80;;;1.73;;
76204;SDS011;64986;55.672;37.628;2023-07-30T12:00:12;3.53;;;1.92;;
76204;SDS011;64986;55.672;37.628;2023-07-30T12:02:38;1.65;;;1.55;;
76204;SDS011;64986;55.672;37.628;2023-07-30T12:05:04;2.97;;;1.70;;
76204;SDS011;64986;55.672;37.628;2023-07-30T12:07:32;2.58;;;1.38;;
76204;SDS011;64986;55.672;37.628;2023-07-30T12:10:10;3.05;;;1.40;;
76204;SDS011;64986;55.672;37.628;2023-07-30T12:12:37;3.17;;;1.58;;
76204;SDS011;64986;55.672;37.628;2023-07-30T12:15:11;2.17;;;1.30;;
76204;SDS011;64986;55.672;37.628;2023-07-30T12:17:38;2.13;;;1.35;;
76204;SDS011;64986;55.672;37.628;2023-07-30T12:20:04;3.17;;;1.60;;
76204;SDS011;64986;55.672;37.628;2023-07-30T12:22:32;2.80;;;1.30;;
76204;SDS011;64986;55.672;37.628;2023-07-30T12:24:59;3.90;;;1.67;;
76204;SDS011;64986;55.672;37.628;2023-07-30T12:27:25;2.95;;;1.60;;
76204;SDS011;64986;55.672;37.628;2023-07-30T12:29:51;3.60;;;1.40;;
76204;SDS011;64986;55.672;37.628;2023-07-30T12:32:17;1.55;;;1.25;;
76204;SDS011;64986;55.672;37.628;2023-07-30T12:34:42;3.42;;;1.63;;
76204;SDS011;64986;55.672;37.628;2023-07-30T12:37:08;1.75;;;1.40;;
76204;SDS011;64986;55.672;37.628;2023-07-30T12:39:34;2.92;;;1.52;;
76204;SDS011;64986;55.672;37.628;2023-07-30T12:42:00;3.20;;;1.60;;
76204;SDS011;64986;55.672;37.628;2023-07-30T12:44:25;2.72;;;1.80;;
76204;SDS011;64986;55.672;37.628;2023-07-30T12:46:51;3.63;;;1.50;;
76204;SDS011;64986;55.672;37.628;2023-07-30T12:49:16;2.10;;;1.50;;
76204;SDS011;64986;55.672;37.628;2023-07-30T12:51:42;3.45;;;1.67;;
76204;SDS011;64986;55.672;37.628;2023-07-30T12:54:08;2.28;;;1.40;;
76204;SDS011;64986;55.672;37.628;2023-07-30T12:56:33;1.90;;;1.40;;
76204;SDS011;64986;55.672;37.628;2023-07-30T12:58:59;5.15;;;1.67;;
76204;SDS011;64986;55.672;37.628;2023-07-30T13:01:24;3.00;;;1.65;;
76204;SDS011;64986;55.672;37.628;2023-07-30T13:03:50;2.97;;;1.70;;
76204;SDS011;64986;55.672;37.628;2023-07-30T13:06:16;2.17;;;1.80;;
76204;SDS011;64986;55.672;37.628;2023-07-30T13:08:42;3.25;;;1.30;;
76204;SDS011;64986;55.672;37.628;2023-07-30T13:11:08;4.32;;;1.30;;
76204;SDS011;64986;55.672;37.628;2023-07-30T13:13:33;1.75;;;1.40;;
76204;SDS011;64986;55.672;37.628;2023-07-30T13:15:59;3.83;;;1.40;;
76204;SDS011;64986;55.672;37.628;2023-07-30T13:18:26;3.70;;;1.75;;
76204;SDS011;64986;55.672;37.628;2023-07-30T13:20:52;2.60;;;1.77;;
76204;SDS011;64986;55.672;37.628;2023-07-30T13:23:18;2.58;;;1.98;;
76204;SDS011;64986;55.672;37.628;2023-07-30T13:25:43;5.13;;;1.40;;
76204;SDS011;64986;55.672;37.628;2023-07-30T13:28:09;2.10;;;1.80;;
76204;SDS011;64986;55.672;37.628;2023-07-30T13:30:34;2.30;;;1.70;;
76204;SDS011;64986;55.672;37.628;2023-07-30T13:33:00;4.13;;;1.60;;
76204;SDS011;64986;55.672;37.628;2023-07-30T13:35:25;1.77;;;1.60;;
76204;SDS011;64986;55.672;37.628;2023-07-30T13:37:51;1.40;;;1.27;;
76204;SDS011;64986;55.672;37.628;2023-07-30T13:40:16;1.20;;;1.10;;
76204;SDS011;64986;55.672;37.628;2023-07-30T13:42:42;2.13;;;1.40;;
76204;SDS011;64986;55.672;37.628;2023-07-30T13:45:07;3.60;;;1.30;;
76204;SDS011;64986;55.672;37.628;2023-07-30T13:47:33;1.40;;;1.17;;
76204;SDS011;64986;55.672;37.628;2023-07-30T13:49:59;2.10;;;1.77;;
76204;SDS011;64986;55.672;37.628;2023-07-30T13:52:24;2.95;;;1.55;;
76204;SDS011;64986;55.672;37.628;2023-07-30T13:54:49;1.85;;;1.23;;
76204;SDS011;64986;55.672;37.628;2023-07-30T13:57:21;1.33;;;1.23;;
76204;SDS011;64986;55.672;37.628;2023-07-30T13:59:49;1.23;;;1.13;;
76204;SDS011;64986;55.672;37.628;2023-07-30T14:02:15;1.98;;;1.35;;
76204;SDS011;64986;55.672;37.628;2023-07-30T14:04:40;1.65;;;1.40;;
76204;SDS011;64986;55.672;37.628;2023-07-30T14:07:06;1.55;;;1.25;;
76204;SDS011;64986;55.672;37.628;2023-07-30T14:09:31;1.65;;;1.20;;
76204;SDS011;64986;55.672;37.628;2023-07-30T14:11:59;1.77;;;1.40;;
76204;SDS011;64986;55.672;37.628;2023-07-30T14:14:25;2.72;;;1.27;;
76204;SDS011;64986;55.672;37.628;2023-07-30T14:16:52;1.52;;;1.23;;
76204;SDS011;64986;55.672;37.628;2023-07-30T14:19:19;3.00;;;1.30;;
76204;SDS011;64986;55.672;37.628;2023-07-30T14:21:44;3.92;;;1.85;;
76204;SDS011;64986;55.672;37.628;2023-07-30T14:24:10;2.13;;;1.63;;
76204;SDS011;64986;55.672;37.628;2023-07-30T14:26:36;1.70;;;1.50;;
76204;SDS011;64986;55.672;37.628;2023-07-30T14:29:02;2.15;;;1.60;;
76204;SDS011;64986;55.672;37.628;2023-07-30T14:31:27;2.20;;;1.50;;
76204;SDS011;64986;55.672;37.628;2023-07-30T14:33:53;1.80;;;1.38;;